25°F Temp
18°F Dewpoint
74% Humidity
Temperature
7 MPH
11 KM/H
6 KTS
170°
Due South

Wind Speed
Clear
Conditions
Pressure 1028.12 (hPa) - 30.36 (in)
Visibility 10.0 (mi) - 16.1 (km)

Current Conditions
KCPS
Location 10(mi)
Metar :KCPS 220853Z AUTO 17006KT 10SM CLR M04/M08 A3036 RMK AO2 SLP286 T10441078 58009
Wed 22nd January 02:53 am

Airport
  Metar Aviation API Data Provided by https://www.checkwx.com/ PHP scripts by weather34.com ©2020